createdAt,value
2023-01-13T00:02:26.515Z,-2.04
2023-01-13T00:05:00.361Z,-2.04
2023-01-13T00:07:34.631Z,-2.06
2023-01-13T00:10:12.265Z,-2.06
2023-01-13T00:12:46.542Z,-2.07
2023-01-13T00:15:20.931Z,-2.05
2023-01-13T00:17:54.575Z,-2.01
2023-01-13T00:20:28.721Z,-1.98
2023-01-13T00:23:01.627Z,-1.96
2023-01-13T00:25:35.722Z,-1.94
2023-01-13T00:28:10.467Z,-1.93
2023-01-13T00:30:44.929Z,-1.93
2023-01-13T00:33:19.427Z,-1.94
2023-01-13T00:36:01.038Z,-1.92
2023-01-13T00:38:38.176Z,-1.91
2023-01-13T00:41:15.685Z,-1.91
2023-01-13T00:43:50.480Z,-1.91
2023-01-13T00:46:24.955Z,-1.91
2023-01-13T00:49:00.117Z,-1.91
2023-01-13T00:51:33.105Z,-1.90
2023-01-13T00:54:06.653Z,-1.92
2023-01-13T00:56:41.320Z,-1.94
2023-01-13T00:59:16.075Z,-1.97
2023-01-13T01:01:49.911Z,-1.98
2023-01-13T01:04:23.743Z,-1.98
2023-01-13T01:06:58.242Z,-1.98
2023-01-13T01:09:33.004Z,-1.97
2023-01-13T01:12:07.404Z,-1.96
2023-01-13T01:14:41.021Z,-1.94
2023-01-13T01:17:15.403Z,-1.90
2023-01-13T01:19:49.031Z,-1.87
2023-01-13T01:22:23.463Z,-1.86
2023-01-13T01:24:58.571Z,-1.85
2023-01-13T01:27:32.677Z,-1.85
2023-01-13T01:30:08.430Z,-1.84
2023-01-13T01:32:42.128Z,-1.84
2023-01-13T01:35:15.939Z,-1.83
2023-01-13T01:37:50.334Z,-1.80
2023-01-13T01:40:24.312Z,-1.78
2023-01-13T01:43:15.665Z,-1.77
2023-01-13T01:45:50.963Z,-1.73
2023-01-13T01:48:24.894Z,-1.74
2023-01-13T01:50:59.070Z,-1.73
2023-01-13T01:53:34.829Z,-1.73
2023-01-13T01:56:10.977Z,-1.72
2023-01-13T01:58:49.458Z,-1.72
2023-01-13T02:01:23.288Z,-1.71
2023-01-13T02:04:05.670Z,-1.71
2023-01-13T02:06:39.165Z,-1.71
2023-01-13T02:09:13.411Z,-1.70
2023-01-13T02:12:05.034Z,-1.68
2023-01-13T02:14:40.748Z,-1.66
2023-01-13T02:17:43.299Z,-1.66
2023-01-13T02:20:50.039Z,-1.65
2023-01-13T02:24:29.490Z,-1.67
2023-01-13T02:27:30.319Z,-1.66
2023-01-13T02:30:46.233Z,-1.65
2023-01-13T02:33:39.659Z,-1.62
2023-01-13T02:36:40.905Z,-1.58
2023-01-13T02:39:25.618Z,-1.56
2023-01-13T02:42:38.275Z,-1.57
2023-01-13T02:45:49.454Z,-1.56
2023-01-13T02:48:24.972Z,-1.56
2023-01-13T02:51:07.061Z,-1.55
2023-01-13T02:53:48.138Z,-1.55
2023-01-13T02:56:24.070Z,-1.54
2023-01-13T02:58:59.326Z,-1.53
2023-01-13T03:01:33.303Z,-1.52
2023-01-13T03:04:37.516Z,-1.52
2023-01-13T03:07:16.349Z,-1.51
2023-01-13T03:10:06.829Z,-1.52
2023-01-13T03:12:45.513Z,-1.52
2023-01-13T03:15:30.156Z,-1.53
2023-01-13T03:18:28.163Z,-1.54
2023-01-13T03:21:22.565Z,-1.54
2023-01-13T03:24:09.010Z,-1.54
2023-01-13T03:26:56.824Z,-1.53
2023-01-13T03:29:43.595Z,-1.55
2023-01-13T03:32:45.049Z,-1.56
2023-01-13T03:35:29.526Z,-1.57
2023-01-13T03:38:21.956Z,-1.56
2023-01-13T03:40:59.467Z,-1.56
2023-01-13T03:44:00.678Z,-1.56
2023-01-13T03:46:39.611Z,-1.58
2023-01-13T03:49:17.461Z,-1.60
2023-01-13T03:51:55.951Z,-1.60
2023-01-13T03:54:32.245Z,-1.59
2023-01-13T03:57:10.752Z,-1.58
2023-01-13T03:59:48.525Z,-1.56
2023-01-13T04:02:38.641Z,-1.54
2023-01-13T04:05:13.129Z,-1.53
2023-01-13T04:08:15.650Z,-1.52
2023-01-13T04:10:59.435Z,-1.50
2023-01-13T04:13:37.475Z,-1.51
2023-01-13T04:16:13.031Z,-1.52
2023-01-13T04:18:46.975Z,-1.53
2023-01-13T04:21:20.657Z,-1.54
2023-01-13T04:23:54.058Z,-1.52
2023-01-13T04:26:27.618Z,-1.52
2023-01-13T04:29:01.470Z,-1.51
2023-01-13T04:31:35.430Z,-1.53
2023-01-13T04:34:09.068Z,-1.52
2023-01-13T04:36:42.778Z,-1.53
2023-01-13T04:39:16.511Z,-1.52
2023-01-13T04:41:59.637Z,-1.53
2023-01-13T04:44:35.587Z,-1.52
2023-01-13T04:47:09.623Z,-1.52
2023-01-13T04:49:43.404Z,-1.52
2023-01-13T04:52:17.073Z,-1.48
2023-01-13T04:54:51.350Z,-1.49
2023-01-13T04:57:25.090Z,-1.47
2023-01-13T04:59:59.376Z,-1.48
2023-01-13T05:02:32.730Z,-1.47
2023-01-13T05:05:06.932Z,-1.48
2023-01-13T05:07:41.496Z,-1.49
2023-01-13T05:10:15.627Z,-1.48
2023-01-13T05:13:07.441Z,-1.49
2023-01-13T05:16:04.084Z,-1.50
2023-01-13T05:19:05.016Z,-1.52
2023-01-13T05:21:57.287Z,-1.52
2023-01-13T05:24:49.247Z,-1.52
2023-01-13T05:27:22.915Z,-1.50
2023-01-13T05:29:57.023Z,-1.51
2023-01-13T05:32:31.484Z,-1.51
2023-01-13T05:35:05.797Z,-1.49
2023-01-13T05:37:39.864Z,-1.47
2023-01-13T05:40:34.420Z,-1.44
2023-01-13T05:43:20.600Z,-1.42
2023-01-13T05:46:08.343Z,-1.41
2023-01-13T05:48:44.308Z,-1.40
2023-01-13T05:51:19.463Z,-1.38
2023-01-13T05:53:54.790Z,-1.37
2023-01-13T05:56:27.600Z,-1.36
2023-01-13T05:59:01.018Z,-1.35
2023-01-13T06:01:37.301Z,-1.34
2023-01-13T06:04:11.154Z,-1.34
2023-01-13T06:06:45.719Z,-1.35
2023-01-13T06:09:21.283Z,-1.37
2023-01-13T06:11:55.609Z,-1.35
2023-01-13T06:14:40.888Z,-1.36
2023-01-13T06:17:17.181Z,-1.36
2023-01-13T06:19:51.371Z,-1.34
2023-01-13T06:22:31.077Z,-1.32
2023-01-13T06:25:07.128Z,-1.31
2023-01-13T06:27:41.330Z,-1.30
2023-01-13T06:30:15.353Z,-1.26
2023-01-13T06:32:51.762Z,-1.22
2023-01-13T06:35:29.987Z,-1.16
2023-01-13T06:38:06.389Z,-1.17
2023-01-13T06:40:40.127Z,-1.17
2023-01-13T06:43:17.415Z,-1.19
2023-01-13T06:45:56.293Z,-1.21
2023-01-13T06:48:35.759Z,-1.21
2023-01-13T06:51:09.791Z,-1.22
2023-01-13T06:53:43.592Z,-1.18
2023-01-13T06:56:17.356Z,-1.15
2023-01-13T06:58:50.575Z,-1.10
2023-01-13T07:01:24.470Z,-1.06
2023-01-13T07:03:58.330Z,-1.02
2023-01-13T07:06:31.823Z,-0.98
2023-01-13T07:09:06.895Z,-0.97
2023-01-13T07:11:41.467Z,-0.96
2023-01-13T07:14:33.598Z,-0.94
2023-01-13T07:17:07.268Z,-0.95
2023-01-13T07:19:42.228Z,-0.96
2023-01-13T07:22:16.412Z,-0.98
2023-01-13T07:24:49.316Z,-0.93
2023-01-13T07:27:23.482Z,-0.93
2023-01-13T07:29:57.521Z,-0.90
2023-01-13T07:32:33.832Z,-0.87
2023-01-13T07:35:08.820Z,-0.86
2023-01-13T07:37:42.997Z,-0.82
2023-01-13T07:40:17.042Z,-0.80
2023-01-13T07:43:08.694Z,-0.77
2023-01-13T07:45:42.451Z,-0.76
2023-01-13T07:48:16.503Z,-0.76
2023-01-13T07:50:51.002Z,-0.72
2023-01-13T07:53:26.262Z,-0.69
2023-01-13T07:56:01.023Z,-0.70
2023-01-13T07:58:39.220Z,-0.71
2023-01-13T08:01:16.981Z,-0.68
2023-01-13T08:03:50.562Z,-0.65
2023-01-13T08:06:24.658Z,-0.66
2023-01-13T08:08:58.337Z,-0.68
2023-01-13T08:11:33.223Z,-0.68
2023-01-13T08:14:06.885Z,-0.67
2023-01-13T08:16:41.299Z,-0.67
2023-01-13T08:19:15.104Z,-0.63
2023-01-13T08:21:48.828Z,-0.61
2023-01-13T08:24:22.821Z,-0.58
2023-01-13T08:26:57.142Z,-0.56
2023-01-13T08:29:30.773Z,-0.55
2023-01-13T08:32:04.229Z,-0.55
2023-01-13T08:34:38.461Z,-0.53
2023-01-13T08:37:12.559Z,-0.50
2023-01-13T08:39:45.533Z,-0.50
2023-01-13T08:42:19.100Z,-0.50
2023-01-13T08:44:52.676Z,-0.47
2023-01-13T08:47:29.057Z,-0.46
2023-01-13T08:50:02.802Z,-0.46
2023-01-13T08:52:37.131Z,-0.48
2023-01-13T08:55:11.291Z,-0.50
2023-01-13T08:57:45.532Z,-0.52
2023-01-13T09:00:19.767Z,-0.52
2023-01-13T09:02:52.890Z,-0.49
2023-01-13T09:05:27.139Z,-0.52
2023-01-13T09:08:00.787Z,-0.56
2023-01-13T09:10:35.943Z,-0.58
2023-01-13T09:13:12.449Z,-0.60
2023-01-13T09:15:49.135Z,-0.61
2023-01-13T09:18:22.880Z,-0.63
2023-01-13T09:20:56.682Z,-0.61
2023-01-13T09:23:30.422Z,-0.61
2023-01-13T09:26:04.249Z,-0.60
2023-01-13T09:28:38.576Z,-0.56
2023-01-13T09:31:12.255Z,-0.51
2023-01-13T09:34:04.337Z,-0.47
2023-01-13T09:36:38.841Z,-0.42
2023-01-13T09:39:12.925Z,-0.33
2023-01-13T09:42:08.835Z,-0.29
2023-01-13T09:45:02.129Z,-0.28
2023-01-13T09:47:41.419Z,-0.25
2023-01-13T09:50:25.406Z,-0.22
2023-01-13T09:53:00.857Z,-0.18
2023-01-13T09:55:38.029Z,-0.19
2023-01-13T09:58:20.118Z,-0.24
2023-01-13T10:01:10.202Z,-0.25
2023-01-13T10:03:43.967Z,-0.26
2023-01-13T10:06:31.250Z,-0.28
2023-01-13T10:09:05.864Z,-0.28
2023-01-13T10:12:00.366Z,-0.26
2023-01-13T10:14:44.045Z,-0.23
2023-01-13T10:17:37.327Z,-0.19
2023-01-13T10:20:34.024Z,-0.20
2023-01-13T10:23:49.628Z,-0.23
2023-01-13T10:26:37.112Z,-0.26
2023-01-13T10:29:27.218Z,-0.26
2023-01-13T10:32:02.111Z,-0.23
2023-01-13T10:34:52.011Z,-0.23
2023-01-13T10:37:28.636Z,-0.21
2023-01-13T10:40:04.769Z,-0.21
2023-01-13T10:42:38.882Z,-0.16
2023-01-13T10:45:23.276Z,-0.13
2023-01-13T10:48:08.239Z,-0.07
2023-01-13T10:50:42.889Z,-0.05
2023-01-13T10:53:28.959Z,-0.07
2023-01-13T10:56:05.878Z,-0.05
2023-01-13T10:58:39.932Z,0.01
2023-01-13T11:01:30.336Z,0.03
2023-01-13T11:04:04.195Z,0.05
2023-01-13T11:06:38.309Z,0.05
2023-01-13T11:09:18.321Z,0.04
2023-01-13T11:11:54.073Z,0.04
2023-01-13T11:14:45.195Z,0.04
2023-01-13T11:17:35.810Z,0.07
2023-01-13T11:20:26.730Z,0.09
2023-01-13T11:23:03.982Z,0.13
2023-01-13T11:25:44.775Z,0.13
2023-01-13T11:28:41.208Z,0.15
2023-01-13T11:31:31.881Z,0.17
2023-01-13T11:34:19.367Z,0.17
2023-01-13T11:36:55.738Z,0.15
2023-01-13T11:40:00.095Z,0.15
2023-01-13T11:42:51.323Z,0.16
2023-01-13T11:45:35.631Z,0.16
2023-01-13T11:48:11.861Z,0.14
2023-01-13T11:50:59.297Z,0.11
2023-01-13T11:53:47.029Z,0.05
2023-01-13T11:56:46.832Z,0.00
2023-01-13T11:59:58.705Z,-0.02
2023-01-13T12:02:39.889Z,-0.04
2023-01-13T12:05:40.670Z,-0.04
2023-01-13T12:08:54.483Z,-0.05
2023-01-13T12:11:43.348Z,-0.05
2023-01-13T12:14:30.424Z,-0.02
2023-01-13T12:17:05.308Z,-0.02
2023-01-13T12:19:39.178Z,-0.02
2023-01-13T12:22:19.861Z,-0.02
2023-01-13T12:25:09.594Z,-0.01
2023-01-13T12:27:59.389Z,-0.01
2023-01-13T12:30:43.827Z,-0.03
2023-01-13T12:33:34.225Z,-0.01
2023-01-13T12:36:45.217Z,-0.02
2023-01-13T12:39:53.825Z,-0.02
2023-01-13T12:43:09.502Z,-0.03
2023-01-13T12:45:43.822Z,-0.04
2023-01-13T12:48:57.286Z,-0.05
2023-01-13T12:51:40.875Z,-0.09
2023-01-13T12:54:44.702Z,-0.12
2023-01-13T12:57:27.342Z,-0.13
2023-01-13T13:00:11.904Z,-0.11
2023-01-13T13:03:18.534Z,-0.09
2023-01-13T13:06:05.135Z,-0.06
2023-01-13T13:09:03.736Z,-0.04
2023-01-13T13:12:03.400Z,-0.02
2023-01-13T13:14:44.818Z,-0.02
2023-01-13T13:17:35.594Z,-0.03
2023-01-13T13:20:13.936Z,-0.05
2023-01-13T13:22:51.748Z,-0.05
2023-01-13T13:25:27.676Z,-0.05
2023-01-13T13:28:12.026Z,-0.04
2023-01-13T13:30:51.139Z,-0.03
2023-01-13T13:34:10.785Z,-0.03
2023-01-13T13:37:24.694Z,-0.04
2023-01-13T13:40:16.459Z,-0.08
2023-01-13T13:43:12.631Z,-0.12
2023-01-13T13:46:11.200Z,-0.13
2023-01-13T13:48:55.939Z,-0.12
2023-01-13T13:51:36.695Z,-0.13
2023-01-13T13:54:21.393Z,-0.14
2023-01-13T13:56:55.427Z,-0.14
2023-01-13T13:59:31.187Z,-0.15
2023-01-13T14:02:11.159Z,-0.16
2023-01-13T14:04:45.329Z,-0.20
2023-01-13T14:07:22.494Z,-0.22
2023-01-13T14:09:57.746Z,-0.23
2023-01-13T14:12:34.659Z,-0.24
2023-01-13T14:15:26.251Z,-0.23
2023-01-13T14:18:03.565Z,-0.23
2023-01-13T14:20:37.572Z,-0.21
2023-01-13T14:23:18.799Z,-0.20
2023-01-13T14:25:53.869Z,-0.20
2023-01-13T14:28:32.513Z,-0.20
2023-01-13T14:31:07.771Z,-0.20
2023-01-13T14:33:46.424Z,-0.22
2023-01-13T14:36:26.309Z,-0.23
2023-01-13T14:39:15.162Z,-0.23
2023-01-13T14:41:51.248Z,-0.25
2023-01-13T14:44:35.297Z,-0.26
2023-01-13T14:47:33.533Z,-0.27
2023-01-13T14:50:16.334Z,-0.26
2023-01-13T14:52:55.904Z,-0.25
2023-01-13T14:55:40.982Z,-0.25
2023-01-13T14:58:28.628Z,-0.26
2023-01-13T15:01:29.816Z,-0.29
2023-01-13T15:04:28.839Z,-0.29
2023-01-13T15:07:03.466Z,-0.31
2023-01-13T15:09:42.379Z,-0.32
2023-01-13T15:12:39.638Z,-0.32
2023-01-13T15:15:26.458Z,-0.32
2023-01-13T15:18:01.107Z,-0.33
2023-01-13T15:20:34.923Z,-0.31
2023-01-13T15:23:09.028Z,-0.31
2023-01-13T15:25:43.773Z,-0.32
2023-01-13T15:28:21.199Z,-0.31
2023-01-13T15:30:58.920Z,-0.29
2023-01-13T15:33:33.147Z,-0.28
2023-01-13T15:36:12.248Z,-0.27
2023-01-13T15:38:45.940Z,-0.27
2023-01-13T15:41:21.673Z,-0.28
2023-01-13T15:44:13.431Z,-0.26
2023-01-13T15:46:47.624Z,-0.27
2023-01-13T15:49:41.012Z,-0.29
2023-01-13T15:52:26.699Z,-0.26
2023-01-13T15:55:00.363Z,-0.25
2023-01-13T15:57:37.333Z,-0.25
2023-01-13T16:00:18.043Z,-0.27
2023-01-13T16:02:52.558Z,-0.29
2023-01-13T16:05:26.374Z,-0.29
2023-01-13T16:08:00.213Z,-0.28
2023-01-13T16:10:35.115Z,-0.25
2023-01-13T16:13:09.088Z,-0.25
2023-01-13T16:15:51.079Z,-0.25
2023-01-13T16:18:26.001Z,-0.25
2023-01-13T16:20:59.748Z,-0.28
2023-01-13T16:23:33.423Z,-0.30
2023-01-13T16:26:09.185Z,-0.28
2023-01-13T16:28:43.103Z,-0.25
2023-01-13T16:31:33.266Z,-0.25
2023-01-13T16:34:07.801Z,-0.25
2023-01-13T16:36:41.769Z,-0.25
2023-01-13T16:39:21.990Z,-0.25
2023-01-13T16:41:56.825Z,-0.27
2023-01-13T16:44:30.892Z,-0.29
2023-01-13T16:47:05.266Z,-0.27
2023-01-13T16:49:39.805Z,-0.25
2023-01-13T16:52:13.998Z,-0.26
2023-01-13T16:54:47.011Z,-0.28
2023-01-13T16:57:20.708Z,-0.28
2023-01-13T16:59:54.339Z,-0.29
2023-01-13T17:02:28.086Z,-0.28
2023-01-13T17:05:02.613Z,-0.29
2023-01-13T17:07:35.911Z,-0.26
2023-01-13T17:10:11.851Z,-0.24
2023-01-13T17:12:45.888Z,-0.25
2023-01-13T17:15:21.264Z,-0.24
2023-01-13T17:17:57.550Z,-0.22
2023-01-13T17:20:31.521Z,-0.20
2023-01-13T17:23:05.699Z,-0.18
2023-01-13T17:25:40.177Z,-0.19
2023-01-13T17:28:14.139Z,-0.20
2023-01-13T17:30:47.962Z,-0.20
2023-01-13T17:33:21.522Z,-0.21
2023-01-13T17:35:55.208Z,-0.22
2023-01-13T17:38:28.964Z,-0.20
2023-01-13T17:41:07.993Z,-0.17
2023-01-13T17:43:42.096Z,-0.18
2023-01-13T17:46:20.389Z,-0.20
2023-01-13T17:48:54.495Z,-0.20
2023-01-13T17:51:27.401Z,-0.21
2023-01-13T17:54:00.799Z,-0.21
2023-01-13T17:56:34.883Z,-0.20
2023-01-13T17:59:10.471Z,-0.22
2023-01-13T18:01:46.549Z,-0.22
2023-01-13T18:04:23.658Z,-0.20
2023-01-13T18:06:57.732Z,-0.18
2023-01-13T18:09:33.388Z,-0.16
2023-01-13T18:12:07.435Z,-0.17
2023-01-13T18:14:41.250Z,-0.15
2023-01-13T18:17:15.785Z,-0.14
2023-01-13T18:20:07.697Z,-0.16
2023-01-13T18:23:01.020Z,-0.17
2023-01-13T18:25:45.521Z,-0.17
2023-01-13T18:28:19.403Z,-0.16
2023-01-13T18:30:53.293Z,-0.19
2023-01-13T18:33:27.131Z,-0.19
2023-01-13T18:36:00.392Z,-0.16
2023-01-13T18:38:35.410Z,-0.15
2023-01-13T18:41:11.502Z,-0.15
2023-01-13T18:43:45.784Z,-0.15
2023-01-13T18:46:20.129Z,-0.12
2023-01-13T18:48:54.078Z,-0.11
2023-01-13T18:51:28.461Z,-0.13
2023-01-13T18:54:02.753Z,-0.12
2023-01-13T18:56:38.529Z,-0.09
2023-01-13T18:59:12.415Z,-0.09
2023-01-13T19:01:47.004Z,-0.10
2023-01-13T19:04:21.001Z,-0.11
2023-01-13T19:06:56.548Z,-0.14
2023-01-13T19:09:31.213Z,-0.13
2023-01-13T19:12:07.249Z,-0.14
2023-01-13T19:14:42.743Z,-0.16
2023-01-13T19:17:17.862Z,-0.17
2023-01-13T19:19:54.744Z,-0.17
2023-01-13T19:22:32.989Z,-0.17
2023-01-13T19:25:07.254Z,-0.17
2023-01-13T19:27:41.230Z,-0.15
2023-01-13T19:30:20.199Z,-0.14
2023-01-13T19:32:53.896Z,-0.12
2023-01-13T19:35:28.007Z,-0.13
2023-01-13T19:38:01.787Z,-0.14
2023-01-13T19:40:35.621Z,-0.13
2023-01-13T19:43:27.967Z,-0.12
2023-01-13T19:46:01.860Z,-0.12
2023-01-13T19:48:36.433Z,-0.12
2023-01-13T19:51:12.511Z,-0.09
2023-01-13T19:53:47.230Z,-0.08
2023-01-13T19:56:22.458Z,-0.07
2023-01-13T19:58:57.529Z,-0.07
2023-01-13T20:01:34.328Z,-0.07
2023-01-13T20:04:10.533Z,-0.05
2023-01-13T20:06:46.769Z,-0.04
2023-01-13T20:09:20.748Z,-0.02
2023-01-13T20:11:55.963Z,0.00
2023-01-13T20:14:29.731Z,0.05
2023-01-13T20:17:03.696Z,0.06
2023-01-13T20:19:37.909Z,0.07
2023-01-13T20:22:13.806Z,0.07
2023-01-13T20:24:48.757Z,0.07
2023-01-13T20:27:24.275Z,0.09
2023-01-13T20:29:57.916Z,0.08
2023-01-13T20:32:31.523Z,0.06
2023-01-13T20:35:05.347Z,0.04
2023-01-13T20:37:40.585Z,0.04
2023-01-13T20:40:18.572Z,0.02
2023-01-13T20:42:52.959Z,0.03
2023-01-13T20:45:27.593Z,-0.01
2023-01-13T20:48:01.533Z,-0.01
2023-01-13T20:50:34.668Z,0.00
2023-01-13T20:53:08.404Z,0.00
2023-01-13T20:55:42.590Z,0.00
2023-01-13T20:58:15.321Z,0.01
2023-01-13T21:00:50.579Z,0.02
2023-01-13T21:03:24.101Z,0.02
2023-01-13T21:06:00.100Z,0.04
2023-01-13T21:08:34.350Z,0.03
2023-01-13T21:11:10.182Z,0.04
2023-01-13T21:14:02.367Z,0.03
2023-01-13T21:16:36.784Z,0.01
2023-01-13T21:19:11.020Z,-0.01
2023-01-13T21:21:44.759Z,-0.03
2023-01-13T21:24:18.619Z,-0.05
2023-01-13T21:27:01.912Z,-0.03
2023-01-13T21:29:36.027Z,-0.03
2023-01-13T21:32:09.786Z,-0.06
2023-01-13T21:34:43.919Z,-0.07
2023-01-13T21:37:18.880Z,-0.09
2023-01-13T21:39:52.683Z,-0.12
2023-01-13T21:42:43.926Z,-0.11
2023-01-13T21:45:35.683Z,-0.12
2023-01-13T21:48:09.379Z,-0.10
2023-01-13T21:50:43.379Z,-0.09
2023-01-13T21:53:17.376Z,-0.09
2023-01-13T21:55:54.134Z,-0.10
2023-01-13T21:58:27.980Z,-0.11
2023-01-13T22:01:04.210Z,-0.11
2023-01-13T22:03:59.487Z,-0.13
2023-01-13T22:06:33.248Z,-0.13
2023-01-13T22:09:07.752Z,-0.13
2023-01-13T22:11:41.465Z,-0.12
2023-01-13T22:14:15.957Z,-0.11
2023-01-13T22:16:50.592Z,-0.12
2023-01-13T22:19:25.305Z,-0.12
2023-01-13T22:21:59.485Z,-0.12
2023-01-13T22:24:33.494Z,-0.12
2023-01-13T22:27:07.908Z,-0.10
2023-01-13T22:29:42.695Z,-0.08
2023-01-13T22:32:17.473Z,-0.11
2023-01-13T22:34:51.505Z,-0.11
2023-01-13T22:37:25.578Z,-0.11
2023-01-13T22:39:59.381Z,-0.10
2023-01-13T22:42:33.263Z,-0.10
2023-01-13T22:45:10.137Z,-0.10
2023-01-13T22:47:43.985Z,-0.10
2023-01-13T22:50:19.606Z,-0.10
2023-01-13T22:52:53.789Z,-0.08
2023-01-13T22:55:27.479Z,-0.09
2023-01-13T22:58:01.782Z,-0.08
2023-01-13T23:00:36.399Z,-0.07
2023-01-13T23:03:10.130Z,-0.06
2023-01-13T23:05:46.170Z,-0.04
2023-01-13T23:08:20.488Z,-0.04
2023-01-13T23:10:53.386Z,-0.02
2023-01-13T23:13:26.788Z,-0.02
2023-01-13T23:16:10.538Z,-0.06
2023-01-13T23:18:48.779Z,-0.10
2023-01-13T23:21:26.857Z,-0.12
2023-01-13T23:24:01.401Z,-0.12
2023-01-13T23:26:36.225Z,-0.15
2023-01-13T23:29:13.520Z,-0.14
2023-01-13T23:31:47.656Z,-0.13
2023-01-13T23:34:23.545Z,-0.13
2023-01-13T23:39:58.331Z,-0.15
2023-01-13T23:42:31.929Z,-0.16
2023-01-13T23:45:06.092Z,-0.14
2023-01-13T23:47:40.209Z,-0.13
2023-01-13T23:50:13.986Z,-0.11
2023-01-13T23:52:47.943Z,-0.13
2023-01-13T23:55:22.780Z,-0.12
2023-01-13T23:57:56.451Z,-0.11
